sensor_id;sensor_type;location;lat;lon;timestamp;pressure;altitude;pressure_sealevel;temperature;humidity
32875;BME280;40468;42.128;24.750;2023-04-23T00:00:59;99728.19;;;13.53;70.84
32875;BME280;40468;42.128;24.750;2023-04-23T00:02:33;99730.91;;;13.52;70.57
32875;BME280;40468;42.128;24.750;2023-04-23T00:04:07;99727.53;;;13.50;71.07
32875;BME280;40468;42.128;24.750;2023-04-23T00:05:39;99732.94;;;13.47;70.99
32875;BME280;40468;42.128;24.750;2023-04-23T00:07:12;99731.59;;;13.39;71.06
32875;BME280;40468;42.128;24.750;2023-04-23T00:08:44;99730.34;;;13.31;71.51
32875;BME280;40468;42.128;24.750;2023-04-23T00:10:18;99738.38;;;13.28;71.52
32875;BME280;40468;42.128;24.750;2023-04-23T00:11:51;99738.97;;;13.17;71.52
32875;BME280;40468;42.128;24.750;2023-04-23T00:13:23;99733.31;;;13.09;71.85
32875;BME280;40468;42.128;24.750;2023-04-23T00:14:54;99737.22;;;13.02;71.95
32875;BME280;40468;42.128;24.750;2023-04-23T00:16:28;99737.56;;;12.95;72.30
32875;BME280;40468;42.128;24.750;2023-04-23T00:18:00;99735.22;;;12.91;72.10
32875;BME280;40468;42.128;24.750;2023-04-23T00:19:32;99740.50;;;12.89;72.55
32875;BME280;40468;42.128;24.750;2023-04-23T00:21:03;99741.53;;;12.87;72.73
32875;BME280;40468;42.128;24.750;2023-04-23T00:22:35;99738.94;;;12.87;72.82
32875;BME280;40468;42.128;24.750;2023-04-23T00:24:06;99741.44;;;12.88;72.75
32875;BME280;40468;42.128;24.750;2023-04-23T00:25:38;99743.03;;;12.91;72.59
32875;BME280;40468;42.128;24.750;2023-04-23T00:27:10;99748.16;;;12.92;72.66
32875;BME280;40468;42.128;24.750;2023-04-23T00:28:42;99744.66;;;12.93;72.95
32875;BME280;40468;42.128;24.750;2023-04-23T00:30:13;99740.44;;;12.91;72.63
32875;BME280;40468;42.128;24.750;2023-04-23T00:31:47;99747.88;;;12.98;72.73
32875;BME280;40468;42.128;24.750;2023-04-23T00:33:19;99738.31;;;12.97;72.83
32875;BME280;40468;42.128;24.750;2023-04-23T00:34:57;99755.44;;;13.03;72.68
32875;BME280;40468;42.128;24.750;2023-04-23T00:36:29;99746.66;;;13.04;72.49
32875;BME280;40468;42.128;24.750;2023-04-23T00:38:01;99747.50;;;13.05;72.87
32875;BME280;40468;42.128;24.750;2023-04-23T00:39:32;99754.25;;;13.09;72.81
32875;BME280;40468;42.128;24.750;2023-04-23T00:41:05;99757.69;;;13.09;72.59
32875;BME280;40468;42.128;24.750;2023-04-23T00:42:38;99759.53;;;13.07;72.62
32875;BME280;40468;42.128;24.750;2023-04-23T00:44:10;99752.97;;;13.00;72.96
32875;BME280;40468;42.128;24.750;2023-04-23T00:45:42;99760.94;;;12.98;73.33
32875;BME280;40468;42.128;24.750;2023-04-23T00:47:15;99757.72;;;12.93;73.17
32875;BME280;40468;42.128;24.750;2023-04-23T00:48:47;99749.56;;;12.84;73.38
32875;BME280;40468;42.128;24.750;2023-04-23T00:50:20;99755.19;;;12.76;73.39
32875;BME280;40468;42.128;24.750;2023-04-23T00:51:51;99769.44;;;12.70;73.86
32875;BME280;40468;42.128;24.750;2023-04-23T00:53:23;99766.22;;;12.65;73.83
32875;BME280;40468;42.128;24.750;2023-04-23T00:54:55;99757.88;;;12.59;73.95
32875;BME280;40468;42.128;24.750;2023-04-23T00:56:27;99764.19;;;12.55;74.12
32875;BME280;40468;42.128;24.750;2023-04-23T00:57:59;99759.47;;;12.45;74.17
32875;BME280;40468;42.128;24.750;2023-04-23T00:59:30;99763.16;;;12.41;74.19
32875;BME280;40468;42.128;24.750;2023-04-23T01:01:03;99765.31;;;12.33;73.99
32875;BME280;40468;42.128;24.750;2023-04-23T01:02:36;99764.81;;;12.26;74.21
32875;BME280;40468;42.128;24.750;2023-04-23T01:04:08;99762.78;;;12.16;73.97
32875;BME280;40468;42.128;24.750;2023-04-23T01:05:40;99767.22;;;12.14;73.99
32875;BME280;40468;42.128;24.750;2023-04-23T01:07:12;99758.94;;;12.05;73.97
32875;BME280;40468;42.128;24.750;2023-04-23T01:08:44;99763.41;;;12.03;73.68
32875;BME280;40468;42.128;24.750;2023-04-23T01:10:17;99749.91;;;11.95;73.21
32875;BME280;40468;42.128;24.750;2023-04-23T01:11:50;99750.44;;;11.84;72.84
32875;BME280;40468;42.128;24.750;2023-04-23T01:13:21;99759.91;;;11.87;73.01
32875;BME280;40468;42.128;24.750;2023-04-23T01:14:56;99754.97;;;11.81;72.97
32875;BME280;40468;42.128;24.750;2023-04-23T01:16:27;99765.41;;;11.81;72.79
32875;BME280;40468;42.128;24.750;2023-04-23T01:18:00;99753.41;;;11.77;72.69
32875;BME280;40468;42.128;24.750;2023-04-23T01:19:33;99759.25;;;11.82;72.83
32875;BME280;40468;42.128;24.750;2023-04-23T01:21:06;99763.53;;;11.83;72.67
32875;BME280;40468;42.128;24.750;2023-04-23T01:22:39;99762.69;;;11.82;72.75
32875;BME280;40468;42.128;24.750;2023-04-23T01:24:11;99758.03;;;11.72;72.57
32875;BME280;40468;42.128;24.750;2023-04-23T01:25:42;99759.88;;;11.70;72.36
32875;BME280;40468;42.128;24.750;2023-04-23T01:27:15;99767.91;;;11.65;72.73
32875;BME280;40468;42.128;24.750;2023-04-23T01:28:46;99760.19;;;11.64;72.32
32875;BME280;40468;42.128;24.750;2023-04-23T01:30:19;99730.72;;;11.44;72.76
32875;BME280;40468;42.128;24.750;2023-04-23T01:31:52;99754.28;;;11.60;72.55
32875;BME280;40468;42.128;24.750;2023-04-23T01:33:24;99754.75;;;11.51;72.59
32875;BME280;40468;42.128;24.750;2023-04-23T01:34:56;99762.56;;;11.51;72.57
32875;BME280;40468;42.128;24.750;2023-04-23T01:36:28;99755.75;;;11.48;72.60
32875;BME280;40468;42.128;24.750;2023-04-23T01:38:02;99754.81;;;11.49;72.46
32875;BME280;40468;42.128;24.750;2023-04-23T01:39:34;99758.34;;;11.48;72.63
32875;BME280;40468;42.128;24.750;2023-04-23T01:41:06;99757.41;;;11.49;72.82
32875;BME280;40468;42.128;24.750;2023-04-23T01:42:39;99762.72;;;11.48;72.71
32875;BME280;40468;42.128;24.750;2023-04-23T01:44:11;99755.81;;;11.47;72.34
32875;BME280;40468;42.128;24.750;2023-04-23T01:45:43;99763.78;;;11.44;72.42
32875;BME280;40468;42.128;24.750;2023-04-23T01:47:15;99757.72;;;11.43;72.64
32875;BME280;40468;42.128;24.750;2023-04-23T01:48:46;99759.41;;;11.44;72.60
32875;BME280;40468;42.128;24.750;2023-04-23T01:50:18;99764.56;;;11.46;72.04
32875;BME280;40468;42.128;24.750;2023-04-23T01:51:52;99762.72;;;11.48;72.40
32875;BME280;40468;42.128;24.750;2023-04-23T01:53:26;99760.28;;;11.45;71.98
32875;BME280;40468;42.128;24.750;2023-04-23T01:54:57;99750.97;;;11.22;72.27
32875;BME280;40468;42.128;24.750;2023-04-23T01:56:28;99765.16;;;11.33;72.10
32875;BME280;40468;42.128;24.750;2023-04-23T01:58:03;99767.00;;;11.31;72.13
32875;BME280;40468;42.128;24.750;2023-04-23T01:59:33;99770.59;;;11.29;72.19
32875;BME280;40468;42.128;24.750;2023-04-23T02:01:06;99766.31;;;11.28;72.18
32875;BME280;40468;42.128;24.750;2023-04-23T02:02:38;99748.16;;;11.07;72.59
32875;BME280;40468;42.128;24.750;2023-04-23T02:04:11;99770.19;;;11.19;72.34
32875;BME280;40468;42.128;24.750;2023-04-23T02:05:43;99770.25;;;11.18;72.66
32875;BME280;40468;42.128;24.750;2023-04-23T02:07:15;99764.34;;;11.14;72.63
32875;BME280;40468;42.128;24.750;2023-04-23T02:08:49;99770.50;;;11.13;72.34
32875;BME280;40468;42.128;24.750;2023-04-23T02:10:20;99774.38;;;11.04;72.61
32875;BME280;40468;42.128;24.750;2023-04-23T02:11:52;99764.00;;;11.03;72.59
32875;BME280;40468;42.128;24.750;2023-04-23T02:13:23;99769.31;;;11.01;72.80
32875;BME280;40468;42.128;24.750;2023-04-23T02:14:55;99771.84;;;11.03;72.95
32875;BME280;40468;42.128;24.750;2023-04-23T02:16:28;99760.50;;;11.04;72.71
32875;BME280;40468;42.128;24.750;2023-04-23T02:17:59;99763.72;;;11.09;72.77
32875;BME280;40468;42.128;24.750;2023-04-23T02:19:31;99761.84;;;11.12;72.94
32875;BME280;40468;42.128;24.750;2023-04-23T02:21:05;99765.19;;;11.14;73.37
32875;BME280;40468;42.128;24.750;2023-04-23T02:22:38;99771.19;;;11.16;73.00
32875;BME280;40468;42.128;24.750;2023-04-23T02:24:11;99761.69;;;11.15;73.20
32875;BME280;40468;42.128;24.750;2023-04-23T02:25:42;99756.69;;;11.11;73.10
32875;BME280;40468;42.128;24.750;2023-04-23T02:27:15;99769.34;;;11.19;73.06
32875;BME280;40468;42.128;24.750;2023-04-23T02:28:46;99772.72;;;11.21;72.63
32875;BME280;40468;42.128;24.750;2023-04-23T02:30:18;99769.28;;;11.20;73.01
32875;BME280;40468;42.128;24.750;2023-04-23T02:31:49;99765.75;;;11.21;72.64
32875;BME280;40468;42.128;24.750;2023-04-23T02:33:21;99771.56;;;11.26;72.65
32875;BME280;40468;42.128;24.750;2023-04-23T02:34:54;99766.38;;;11.26;72.44
32875;BME280;40468;42.128;24.750;2023-04-23T02:36:26;99771.38;;;11.31;72.54
32875;BME280;40468;42.128;24.750;2023-04-23T02:38:00;99769.69;;;11.30;72.64
32875;BME280;40468;42.128;24.750;2023-04-23T02:39:32;99759.38;;;11.27;72.33
32875;BME280;40468;42.128;24.750;2023-04-23T02:41:04;99773.81;;;11.34;72.45
32875;BME280;40468;42.128;24.750;2023-04-23T02:42:35;99769.44;;;11.34;72.13
32875;BME280;40468;42.128;24.750;2023-04-23T02:44:07;99772.00;;;11.36;72.01
32875;BME280;40468;42.128;24.750;2023-04-23T02:45:39;99764.31;;;11.33;72.16
32875;BME280;40468;42.128;24.750;2023-04-23T02:47:11;99777.06;;;11.39;71.96
32875;BME280;40468;42.128;24.750;2023-04-23T02:48:43;99774.34;;;11.41;71.88
32875;BME280;40468;42.128;24.750;2023-04-23T02:50:15;99775.19;;;11.41;71.97
32875;BME280;40468;42.128;24.750;2023-04-23T02:51:47;99775.19;;;11.41;71.51
32875;BME280;40468;42.128;24.750;2023-04-23T02:53:19;99769.38;;;11.36;71.69
32875;BME280;40468;42.128;24.750;2023-04-23T02:54:52;99776.91;;;11.42;71.55
32875;BME280;40468;42.128;24.750;2023-04-23T02:56:24;99775.66;;;11.32;71.32
32875;BME280;40468;42.128;24.750;2023-04-23T02:57:55;99776.50;;;11.32;71.66
32875;BME280;40468;42.128;24.750;2023-04-23T02:59:27;99760.59;;;11.20;71.20
32875;BME280;40468;42.128;24.750;2023-04-23T03:01:00;99778.41;;;11.29;71.50
32875;BME280;40468;42.128;24.750;2023-04-23T03:02:31;99779.19;;;11.31;71.14
32875;BME280;40468;42.128;24.750;2023-04-23T03:04:03;99782.72;;;11.30;71.36
32875;BME280;40468;42.128;24.750;2023-04-23T03:05:34;99781.09;;;11.27;71.31
32875;BME280;40468;42.128;24.750;2023-04-23T03:07:06;99780.22;;;11.27;71.31
32875;BME280;40468;42.128;24.750;2023-04-23T03:08:38;99776.78;;;11.26;71.09
32875;BME280;40468;42.128;24.750;2023-04-23T03:10:11;99783.72;;;11.27;71.45
32875;BME280;40468;42.128;24.750;2023-04-23T03:11:43;99788.22;;;11.24;71.46
32875;BME280;40468;42.128;24.750;2023-04-23T03:13:15;99789.91;;;11.25;71.20
32875;BME280;40468;42.128;24.750;2023-04-23T03:14:46;99789.13;;;11.23;71.21
32875;BME280;40468;42.128;24.750;2023-04-23T03:16:18;99789.13;;;11.23;71.38
32875;BME280;40468;42.128;24.750;2023-04-23T03:17:50;99793.56;;;11.21;71.51
32875;BME280;40468;42.128;24.750;2023-04-23T03:19:26;99789.22;;;11.21;71.40
32875;BME280;40468;42.128;24.750;2023-04-23T03:20:58;99793.66;;;11.19;71.36
32875;BME280;40468;42.128;24.750;2023-04-23T03:22:30;99789.50;;;11.15;71.49
32875;BME280;40468;42.128;24.750;2023-04-23T03:24:01;99803.25;;;11.19;71.45
32875;BME280;40468;42.128;24.750;2023-04-23T03:25:34;99796.41;;;11.16;71.30
32875;BME280;40468;42.128;24.750;2023-04-23T03:27:06;99803.69;;;11.09;71.51
32875;BME280;40468;42.128;24.750;2023-04-23T03:28:38;99803.69;;;11.09;71.42
32875;BME280;40468;42.128;24.750;2023-04-23T03:30:10;99771.53;;;10.91;71.60
32875;BME280;40468;42.128;24.750;2023-04-23T03:31:42;99804.53;;;11.10;71.53
32875;BME280;40468;42.128;24.750;2023-04-23T03:33:14;99801.91;;;11.10;71.58
32875;BME280;40468;42.128;24.750;2023-04-23T03:34:46;99801.81;;;11.11;71.22
32875;BME280;40468;42.128;24.750;2023-04-23T03:36:18;99811.34;;;11.12;71.23
32875;BME280;40468;42.128;24.750;2023-04-23T03:37:50;99801.78;;;11.13;70.99
32875;BME280;40468;42.128;24.750;2023-04-23T03:39:22;99816.63;;;11.11;71.41
32875;BME280;40468;42.128;24.750;2023-04-23T03:40:56;99804.44;;;11.11;71.24
32875;BME280;40468;42.128;24.750;2023-04-23T03:42:27;99804.53;;;11.10;71.26
32875;BME280;40468;42.128;24.750;2023-04-23T03:43:58;99807.81;;;11.13;70.88
32875;BME280;40468;42.128;24.750;2023-04-23T03:45:31;99806.13;;;11.12;70.67
32875;BME280;40468;42.128;24.750;2023-04-23T03:47:02;99798.53;;;11.08;71.06
32875;BME280;40468;42.128;24.750;2023-04-23T03:48:34;99799.50;;;11.05;70.84
32875;BME280;40468;42.128;24.750;2023-04-23T03:50:07;99813.88;;;11.14;70.45
32875;BME280;40468;42.128;24.750;2023-04-23T03:51:39;99813.03;;;11.13;70.62
32875;BME280;40468;42.128;24.750;2023-04-23T03:53:11;99816.56;;;11.12;70.53
32875;BME280;40468;42.128;24.750;2023-04-23T03:54:42;99810.44;;;11.13;70.72
32875;BME280;40468;42.128;24.750;2023-04-23T03:56:15;99812.19;;;11.13;70.25
32875;BME280;40468;42.128;24.750;2023-04-23T03:57:47;99818.69;;;11.04;70.68
32875;BME280;40468;42.128;24.750;2023-04-23T03:59:19;99815.16;;;11.05;70.56
32875;BME280;40468;42.128;24.750;2023-04-23T04:00:50;99815.16;;;11.05;70.35
32875;BME280;40468;42.128;24.750;2023-04-23T04:02:22;99808.25;;;11.04;70.31
32875;BME280;40468;42.128;24.750;2023-04-23T04:03:53;99823.81;;;11.06;70.46
32875;BME280;40468;42.128;24.750;2023-04-23T04:05:25;99823.09;;;11.02;70.63
32875;BME280;40468;42.128;24.750;2023-04-23T04:06:58;99786.00;;;10.78;70.57
32875;BME280;40468;42.128;24.750;2023-04-23T04:08:30;99828.31;;;11.02;70.46
32875;BME280;40468;42.128;24.750;2023-04-23T04:10:03;99821.44;;;11.01;70.63
32875;BME280;40468;42.128;24.750;2023-04-23T04:11:36;99826.66;;;11.01;71.00
32875;BME280;40468;42.128;24.750;2023-04-23T04:13:08;99825.81;;;11.01;71.07
32875;BME280;40468;42.128;24.750;2023-04-23T04:14:41;99829.25;;;11.01;71.12
32875;BME280;40468;42.128;24.750;2023-04-23T04:16:12;99830.94;;;11.02;70.97
32875;BME280;40468;42.128;24.750;2023-04-23T04:17:44;99830.03;;;11.03;71.03
32875;BME280;40468;42.128;24.750;2023-04-23T04:19:16;99833.38;;;11.05;71.08
32875;BME280;40468;42.128;24.750;2023-04-23T04:20:47;99834.97;;;11.09;71.07
32875;BME280;40468;42.128;24.750;2023-04-23T04:22:20;99840.06;;;11.11;71.16
32875;BME280;40468;42.128;24.750;2023-04-23T04:23:52;99828.97;;;11.07;71.11
32875;BME280;40468;42.128;24.750;2023-04-23T04:25:24;99832.34;;;11.09;71.33
32875;BME280;40468;42.128;24.750;2023-04-23T04:26:59;99833.94;;;11.12;71.24
32875;BME280;40468;42.128;24.750;2023-04-23T04:28:31;99836.34;;;11.16;71.11
32875;BME280;40468;42.128;24.750;2023-04-23T04:30:06;99829.31;;;11.19;70.98
32875;BME280;40468;42.128;24.750;2023-04-23T04:31:38;99836.19;;;11.20;71.20
32875;BME280;40468;42.128;24.750;2023-04-23T04:33:09;99848.09;;;11.25;70.95
32875;BME280;40468;42.128;24.750;2023-04-23T04:34:41;99850.56;;;11.28;70.91
32875;BME280;40468;42.128;24.750;2023-04-23T04:36:13;99854.84;;;11.29;70.77
32875;BME280;40468;42.128;24.750;2023-04-23T04:37:45;99852.97;;;11.33;70.65
32875;BME280;40468;42.128;24.750;2023-04-23T04:39:17;99853.81;;;11.33;70.50
32875;BME280;40468;42.128;24.750;2023-04-23T04:40:48;99845.19;;;11.31;70.54
32875;BME280;40468;42.128;24.750;2023-04-23T04:42:21;99853.13;;;11.30;70.55
32875;BME280;40468;42.128;24.750;2023-04-23T04:43:54;99857.41;;;11.31;70.32
32875;BME280;40468;42.128;24.750;2023-04-23T04:45:26;99851.50;;;11.27;70.20
32875;BME280;40468;42.128;24.750;2023-04-23T04:46:58;99854.84;;;11.29;69.96
32875;BME280;40468;42.128;24.750;2023-04-23T04:48:30;99860.00;;;11.31;70.14
32875;BME280;40468;42.128;24.750;2023-04-23T04:50:01;99862.63;;;11.31;70.29
32875;BME280;40468;42.128;24.750;2023-04-23T04:51:33;99866.00;;;11.33;70.23
32875;BME280;40468;42.128;24.750;2023-04-23T04:53:04;99870.28;;;11.34;70.29
32875;BME280;40468;42.128;24.750;2023-04-23T04:54:36;99865.56;;;11.42;70.33
32875;BME280;40468;42.128;24.750;2023-04-23T04:56:08;99871.38;;;11.47;69.95
32875;BME280;40468;42.128;24.750;2023-04-23T04:57:41;99872.78;;;11.54;69.81
32875;BME280;40468;42.128;24.750;2023-04-23T04:59:13;99877.22;;;11.52;70.03
32875;BME280;40468;42.128;24.750;2023-04-23T05:00:45;99879.63;;;11.57;69.79
32875;BME280;40468;42.128;24.750;2023-04-23T05:02:17;99875.81;;;11.64;69.77
32875;BME280;40468;42.128;24.750;2023-04-23T05:03:51;99877.22;;;11.71;69.49
32875;BME280;40468;42.128;24.750;2023-04-23T05:05:24;99886.47;;;11.77;69.53
32875;BME280;40468;42.128;24.750;2023-04-23T05:06:56;99880.22;;;11.81;69.28
32875;BME280;40468;42.128;24.750;2023-04-23T05:08:28;99882.53;;;11.87;69.11
32875;BME280;40468;42.128;24.750;2023-04-23T05:10:00;99880.56;;;11.92;68.72
32875;BME280;40468;42.128;24.750;2023-04-23T05:11:32;99882.16;;;11.95;68.71
32875;BME280;40468;42.128;24.750;2023-04-23T05:13:06;99878.78;;;11.93;68.36
32875;BME280;40468;42.128;24.750;2023-04-23T05:14:38;99884.47;;;12.01;68.06
32875;BME280;40468;42.128;24.750;2023-04-23T05:16:10;99886.00;;;12.05;68.02
32875;BME280;40468;42.128;24.750;2023-04-23T05:17:42;99893.75;;;12.06;67.65
32875;BME280;40468;42.128;24.750;2023-04-23T05:19:14;99891.91;;;12.09;67.64
32875;BME280;40468;42.128;24.750;2023-04-23T05:20:46;99884.84;;;12.11;67.41
32875;BME280;40468;42.128;24.750;2023-04-23T05:22:18;99884.75;;;12.12;67.60
32875;BME280;40468;42.128;24.750;2023-04-23T05:23:50;99874.41;;;12.11;67.17
32875;BME280;40468;42.128;24.750;2023-04-23T05:25:22;99888.00;;;12.17;66.79
32875;BME280;40468;42.128;24.750;2023-04-23T05:26:53;99891.44;;;12.18;66.58
32875;BME280;40468;42.128;24.750;2023-04-23T05:28:27;99891.22;;;12.22;66.77
32875;BME280;40468;42.128;24.750;2023-04-23T05:30:00;99888.53;;;12.24;66.19
32875;BME280;40468;42.128;24.750;2023-04-23T05:31:32;99890.16;;;12.26;65.98
32875;BME280;40468;42.128;24.750;2023-04-23T05:33:04;99899.59;;;12.29;66.09
32875;BME280;40468;42.128;24.750;2023-04-23T05:34:36;99890.16;;;12.26;65.91
32875;BME280;40468;42.128;24.750;2023-04-23T05:36:08;99889.91;;;12.31;65.85
32875;BME280;40468;42.128;24.750;2023-04-23T05:37:40;99881.94;;;12.34;65.88
32875;BME280;40468;42.128;24.750;2023-04-23T05:39:12;99890.22;;;12.42;65.51
32875;BME280;40468;42.128;24.750;2023-04-23T05:40:43;99888.13;;;12.49;65.40
32875;BME280;40468;42.128;24.750;2023-04-23T05:42:15;99890.59;;;12.52;65.26
32875;BME280;40468;42.128;24.750;2023-04-23T05:43:49;99889.59;;;12.55;65.23
32875;BME280;40468;42.128;24.750;2023-04-23T05:45:21;99892.34;;;12.51;65.13
32875;BME280;40468;42.128;24.750;2023-04-23T05:46:51;99880.38;;;12.47;65.38
32875;BME280;40468;42.128;24.750;2023-04-23T05:48:23;99900.41;;;12.64;65.13
32875;BME280;40468;42.128;24.750;2023-04-23T05:49:55;99884.94;;;12.60;65.02
32875;BME280;40468;42.128;24.750;2023-04-23T05:51:27;99896.63;;;12.70;64.79
32875;BME280;40468;42.128;24.750;2023-04-23T05:52:59;99893.84;;;12.73;64.42
32875;BME280;40468;42.128;24.750;2023-04-23T05:54:31;99897.91;;;12.79;64.38
32875;BME280;40468;42.128;24.750;2023-04-23T05:56:03;99893.59;;;12.78;64.28
32875;BME280;40468;42.128;24.750;2023-04-23T05:57:36;99899.69;;;12.78;63.52
32875;BME280;40468;42.128;24.750;2023-04-23T05:59:09;99872.59;;;12.63;63.73
32875;BME280;40468;42.128;24.750;2023-04-23T06:00:41;99903.03;;;12.80;63.51
32875;BME280;40468;42.128;24.750;2023-04-23T06:02:12;99903.75;;;12.84;63.63
32875;BME280;40468;42.128;24.750;2023-04-23T06:03:45;99907.03;;;12.87;63.60
32875;BME280;40468;42.128;24.750;2023-04-23T06:05:21;99903.41;;;12.90;63.59
32875;BME280;40468;42.128;24.750;2023-04-23T06:06:56;99909.31;;;12.93;63.09
32875;BME280;40468;42.128;24.750;2023-04-23T06:08:27;99904.00;;;12.95;62.90
32875;BME280;40468;42.128;24.750;2023-04-23T06:09:59;99900.63;;;12.93;62.41
32875;BME280;40468;42.128;24.750;2023-04-23T06:11:31;99905.88;;;12.93;62.36
32875;BME280;40468;42.128;24.750;2023-04-23T06:13:03;99911.59;;;13.00;62.34
32875;BME280;40468;42.128;24.750;2023-04-23T06:14:36;99911.50;;;13.01;62.31
32875;BME280;40468;42.128;24.750;2023-04-23T06:16:08;99912.22;;;13.05;62.34
32875;BME280;40468;42.128;24.750;2023-04-23T06:17:46;99906.81;;;13.08;62.19
32875;BME280;40468;42.128;24.750;2023-04-23T06:19:18;99907.56;;;13.10;61.82
32875;BME280;40468;42.128;24.750;2023-04-23T06:20:49;99916.94;;;13.14;61.85
32875;BME280;40468;42.128;24.750;2023-04-23T06:22:22;99915.06;;;13.16;61.94
32875;BME280;40468;42.128;24.750;2023-04-23T06:23:53;99908.84;;;13.18;62.02
32875;BME280;40468;42.128;24.750;2023-04-23T06:25:25;99914.63;;;13.25;61.95
32875;BME280;40468;42.128;24.750;2023-04-23T06:26:57;99908.28;;;13.29;61.70
32875;BME280;40468;42.128;24.750;2023-04-23T06:28:31;99905.50;;;13.32;61.89
32875;BME280;40468;42.128;24.750;2023-04-23T06:30:06;99905.28;;;13.37;61.74
32875;BME280;40468;42.128;24.750;2023-04-23T06:31:38;99898.16;;;13.39;61.84
32875;BME280;40468;42.128;24.750;2023-04-23T06:33:11;99911.75;;;13.46;61.68
32875;BME280;40468;42.128;24.750;2023-04-23T06:34:43;99907.28;;;13.48;61.63
32875;BME280;40468;42.128;24.750;2023-04-23T06:36:15;99907.03;;;13.52;61.32
32875;BME280;40468;42.128;24.750;2023-04-23T06:37:46;99908.38;;;13.59;61.21
32875;BME280;40468;42.128;24.750;2023-04-23T06:39:18;99908.28;;;13.61;61.21
32875;BME280;40468;42.128;24.750;2023-04-23T06:40:50;99907.94;;;13.67;61.09
32875;BME280;40468;42.128;24.750;2023-04-23T06:42:21;99906.00;;;13.71;60.96
32875;BME280;40468;42.128;24.750;2023-04-23T06:43:53;99895.72;;;13.68;60.66
32875;BME280;40468;42.128;24.750;2023-04-23T06:45:27;99907.44;;;13.76;60.46
32875;BME280;40468;42.128;24.750;2023-04-23T06:47:01;99910.03;;;13.76;60.57
32875;BME280;40468;42.128;24.750;2023-04-23T06:48:33;99908.09;;;13.80;60.74
32875;BME280;40468;42.128;24.750;2023-04-23T06:50:07;99906.25;;;13.82;60.60
32875;BME280;40468;42.128;24.750;2023-04-23T06:51:39;99907.09;;;13.82;60.77
32875;BME280;40468;42.128;24.750;2023-04-23T06:53:11;99914.22;;;13.95;60.55
32875;BME280;40468;42.128;24.750;2023-04-23T06:54:43;99900.97;;;13.98;60.43
32875;BME280;40468;42.128;24.750;2023-04-23T06:56:15;99907.50;;;14.05;60.39
32875;BME280;40468;42.128;24.750;2023-04-23T06:57:47;99905.31;;;14.13;60.31
32875;BME280;40468;42.128;24.750;2023-04-23T06:59:19;99915.34;;;14.21;60.07
32875;BME280;40468;42.128;24.750;2023-04-23T07:00:52;99913.84;;;14.31;59.92
32875;BME280;40468;42.128;24.750;2023-04-23T07:02:24;99885.69;;;14.20;59.61
32875;BME280;40468;42.128;24.750;2023-04-23T07:03:56;99912.66;;;14.37;59.45
32875;BME280;40468;42.128;24.750;2023-04-23T07:05:28;99904.63;;;14.40;59.65
32875;BME280;40468;42.128;24.750;2023-04-23T07:07:00;99907.72;;;14.46;59.41
32875;BME280;40468;42.128;24.750;2023-04-23T07:08:33;99918.53;;;14.56;59.37
32875;BME280;40468;42.128;24.750;2023-04-23T07:10:06;99907.50;;;14.65;59.30
32875;BME280;40468;42.128;24.750;2023-04-23T07:11:38;99908.25;;;14.67;59.36
32875;BME280;40468;42.128;24.750;2023-04-23T07:13:10;99911.16;;;14.77;59.37
32875;BME280;40468;42.128;24.750;2023-04-23T07:14:42;99897.94;;;14.93;59.30
32875;BME280;40468;42.128;24.750;2023-04-23T07:16:15;99905.63;;;15.10;58.95
32875;BME280;40468;42.128;24.750;2023-04-23T07:17:47;99908.03;;;15.28;58.59
32875;BME280;40468;42.128;24.750;2023-04-23T07:19:19;99895.63;;;15.44;58.09
32875;BME280;40468;42.128;24.750;2023-04-23T07:20:51;99901.38;;;15.63;57.92
32875;BME280;40468;42.128;24.750;2023-04-23T07:22:24;99896.09;;;15.78;57.41
32875;BME280;40468;42.128;24.750;2023-04-23T07:23:56;99871.94;;;15.73;56.87
32875;BME280;40468;42.128;24.750;2023-04-23T07:25:29;99904.44;;;15.97;56.52
32875;BME280;40468;42.128;24.750;2023-04-23T07:27:01;99888.59;;;15.99;56.13
32875;BME280;40468;42.128;24.750;2023-04-23T07:28:33;99896.97;;;16.18;56.15
32875;BME280;40468;42.128;24.750;2023-04-23T07:30:06;99896.97;;;16.31;55.91
32875;BME280;40468;42.128;24.750;2023-04-23T07:31:40;99895.38;;;16.41;55.85
32875;BME280;40468;42.128;24.750;2023-04-23T07:33:12;99897.09;;;16.55;55.26
32875;BME280;40468;42.128;24.750;2023-04-23T07:34:44;99891.81;;;16.68;55.14
32875;BME280;40468;42.128;24.750;2023-04-23T07:36:16;99888.88;;;16.85;54.84
32875;BME280;40468;42.128;24.750;2023-04-23T07:37:48;99892.44;;;16.97;53.97
32875;BME280;40468;42.128;24.750;2023-04-23T07:39:23;99882.75;;;17.10;53.87
32875;BME280;40468;42.128;24.750;2023-04-23T07:40:55;99894.00;;;17.25;53.42
32875;BME280;40468;42.128;24.750;2023-04-23T07:42:27;99886.25;;;17.35;52.76
32875;BME280;40468;42.128;24.750;2023-04-23T07:43:59;99887.50;;;17.42;52.64
32875;BME280;40468;42.128;24.750;2023-04-23T07:45:31;99881.38;;;17.54;52.58
32875;BME280;40468;42.128;24.750;2023-04-23T07:47:04;99889.19;;;17.67;52.00
32875;BME280;40468;42.128;24.750;2023-04-23T07:48:36;99883.09;;;17.66;51.53
32875;BME280;40468;42.128;24.750;2023-04-23T07:50:09;99889.47;;;17.75;51.37
32875;BME280;40468;42.128;24.750;2023-04-23T07:51:41;99885.88;;;17.76;51.59
32875;BME280;40468;42.128;24.750;2023-04-23T07:53:13;99879.66;;;17.77;51.37
32875;BME280;40468;42.128;24.750;2023-04-23T07:54:45;99885.22;;;17.85;51.33
32875;BME280;40468;42.128;24.750;2023-04-23T07:56:17;99888.25;;;17.92;50.90
32875;BME280;40468;42.128;24.750;2023-04-23T07:57:49;99885.00;;;17.88;50.60
32875;BME280;40468;42.128;24.750;2023-04-23T07:59:21;99880.41;;;17.79;50.45
32875;BME280;40468;42.128;24.750;2023-04-23T08:00:53;99880.34;;;17.68;50.58
32875;BME280;40468;42.128;24.750;2023-04-23T08:02:26;99882.25;;;17.66;50.86